sensor_id;sensor_type;location;lat;lon;timestamp;P1;durP1;ratioP1;P2;durP2;ratioP2
39772;SDS011;25451;51.960;6.250;2023-10-08T00:00:12;10.90;;;3.40;;
39772;SDS011;25451;51.960;6.250;2023-10-08T00:02:57;10.75;;;3.05;;
39772;SDS011;25451;51.960;6.250;2023-10-08T00:05:22;8.77;;;3.03;;
39772;SDS011;25451;51.960;6.250;2023-10-08T00:07:47;10.90;;;2.40;;
39772;SDS011;25451;51.960;6.250;2023-10-08T00:10:13;11.30;;;2.70;;
39772;SDS011;25451;51.960;6.250;2023-10-08T00:12:38;10.70;;;2.77;;
39772;SDS011;25451;51.960;6.250;2023-10-08T00:15:03;10.13;;;2.43;;
39772;SDS011;25451;51.960;6.250;2023-10-08T00:17:32;9.07;;;2.78;;
39772;SDS011;25451;51.960;6.250;2023-10-08T00:19:57;9.27;;;2.40;;
39772;SDS011;25451;51.960;6.250;2023-10-08T00:22:25;9.00;;;2.70;;
39772;SDS011;25451;51.960;6.250;2023-10-08T00:24:50;9.73;;;2.83;;
39772;SDS011;25451;51.960;6.250;2023-10-08T00:27:22;10.77;;;2.60;;
39772;SDS011;25451;51.960;6.250;2023-10-08T00:29:48;11.47;;;2.63;;
39772;SDS011;25451;51.960;6.250;2023-10-08T00:32:13;11.40;;;2.80;;
39772;SDS011;25451;51.960;6.250;2023-10-08T00:34:40;9.70;;;2.67;;
39772;SDS011;25451;51.960;6.250;2023-10-08T00:37:07;14.25;;;3.03;;
39772;SDS011;25451;51.960;6.250;2023-10-08T00:39:36;12.30;;;2.88;;
39772;SDS011;25451;51.960;6.250;2023-10-08T00:42:05;11.30;;;2.65;;
39772;SDS011;25451;51.960;6.250;2023-10-08T00:44:32;11.13;;;2.60;;
39772;SDS011;25451;51.960;6.250;2023-10-08T00:47:03;13.88;;;2.80;;
39772;SDS011;25451;51.960;6.250;2023-10-08T00:49:31;11.02;;;2.95;;
39772;SDS011;25451;51.960;6.250;2023-10-08T00:52:03;11.15;;;2.80;;
39772;SDS011;25451;51.960;6.250;2023-10-08T00:54:48;9.95;;;2.55;;
39772;SDS011;25451;51.960;6.250;2023-10-08T00:57:30;11.40;;;3.28;;
39772;SDS011;25451;51.960;6.250;2023-10-08T00:59:59;14.35;;;3.03;;
39772;SDS011;25451;51.960;6.250;2023-10-08T01:02:28;9.90;;;2.73;;
39772;SDS011;25451;51.960;6.250;2023-10-08T01:05:10;13.95;;;3.20;;
39772;SDS011;25451;51.960;6.250;2023-10-08T01:07:38;10.38;;;2.63;;
39772;SDS011;25451;51.960;6.250;2023-10-08T01:10:08;12.10;;;2.70;;
39772;SDS011;25451;51.960;6.250;2023-10-08T01:12:35;10.20;;;2.67;;
39772;SDS011;25451;51.960;6.250;2023-10-08T01:15:09;10.35;;;3.03;;
39772;SDS011;25451;51.960;6.250;2023-10-08T01:17:49;11.70;;;2.75;;
39772;SDS011;25451;51.960;6.250;2023-10-08T01:20:24;10.15;;;2.78;;
39772;SDS011;25451;51.960;6.250;2023-10-08T01:23:06;13.63;;;2.70;;
39772;SDS011;25451;51.960;6.250;2023-10-08T01:25:41;9.13;;;2.43;;
39772;SDS011;25451;51.960;6.250;2023-10-08T01:28:07;9.48;;;2.90;;
39772;SDS011;25451;51.960;6.250;2023-10-08T01:30:40;10.02;;;2.83;;
39772;SDS011;25451;51.960;6.250;2023-10-08T01:33:07;11.32;;;2.58;;
39772;SDS011;25451;51.960;6.250;2023-10-08T01:35:37;11.25;;;3.08;;
39772;SDS011;25451;51.960;6.250;2023-10-08T01:38:03;10.33;;;2.70;;
39772;SDS011;25451;51.960;6.250;2023-10-08T01:40:29;10.15;;;2.67;;
39772;SDS011;25451;51.960;6.250;2023-10-08T01:42:55;14.60;;;3.15;;
39772;SDS011;25451;51.960;6.250;2023-10-08T01:45:25;9.10;;;2.80;;
39772;SDS011;25451;51.960;6.250;2023-10-08T01:47:51;9.90;;;3.03;;
39772;SDS011;25451;51.960;6.250;2023-10-08T01:50:19;9.07;;;2.75;;
39772;SDS011;25451;51.960;6.250;2023-10-08T01:52:54;8.57;;;2.67;;
39772;SDS011;25451;51.960;6.250;2023-10-08T01:55:20;8.93;;;2.67;;
39772;SDS011;25451;51.960;6.250;2023-10-08T01:57:47;6.80;;;2.50;;
39772;SDS011;25451;51.960;6.250;2023-10-08T02:00:13;12.20;;;3.20;;
39772;SDS011;25451;51.960;6.250;2023-10-08T02:02:44;11.35;;;3.45;;
39772;SDS011;25451;51.960;6.250;2023-10-08T02:05:09;9.97;;;2.53;;
39772;SDS011;25451;51.960;6.250;2023-10-08T02:07:39;8.57;;;3.10;;
39772;SDS011;25451;51.960;6.250;2023-10-08T02:10:05;13.57;;;3.00;;
39772;SDS011;25451;51.960;6.250;2023-10-08T02:12:32;10.30;;;2.88;;
39772;SDS011;25451;51.960;6.250;2023-10-08T02:14:57;9.70;;;2.67;;
39772;SDS011;25451;51.960;6.250;2023-10-08T02:17:22;9.30;;;2.87;;
39772;SDS011;25451;51.960;6.250;2023-10-08T02:19:48;10.93;;;2.77;;
39772;SDS011;25451;51.960;6.250;2023-10-08T02:22:13;8.57;;;2.60;;
39772;SDS011;25451;51.960;6.250;2023-10-08T02:24:39;10.07;;;2.83;;
39772;SDS011;25451;51.960;6.250;2023-10-08T02:27:05;9.77;;;2.75;;
39772;SDS011;25451;51.960;6.250;2023-10-08T02:29:31;10.55;;;3.10;;
39772;SDS011;25451;51.960;6.250;2023-10-08T02:31:57;13.90;;;3.35;;
39772;SDS011;25451;51.960;6.250;2023-10-08T02:34:22;12.75;;;3.13;;
39772;SDS011;25451;51.960;6.250;2023-10-08T02:36:48;10.17;;;2.93;;
39772;SDS011;25451;51.960;6.250;2023-10-08T02:39:13;9.23;;;2.80;;
39772;SDS011;25451;51.960;6.250;2023-10-08T02:41:43;8.32;;;2.80;;
39772;SDS011;25451;51.960;6.250;2023-10-08T02:44:15;10.40;;;3.13;;
39772;SDS011;25451;51.960;6.250;2023-10-08T02:46:45;9.70;;;3.00;;
39772;SDS011;25451;51.960;6.250;2023-10-08T02:49:12;8.07;;;2.57;;
39772;SDS011;25451;51.960;6.250;2023-10-08T02:51:42;10.95;;;2.83;;
39772;SDS011;25451;51.960;6.250;2023-10-08T02:54:09;13.35;;;3.35;;
39772;SDS011;25451;51.960;6.250;2023-10-08T02:56:44;11.38;;;3.10;;
39772;SDS011;25451;51.960;6.250;2023-10-08T02:59:13;9.88;;;3.08;;
39772;SDS011;25451;51.960;6.250;2023-10-08T03:01:40;10.40;;;3.13;;
39772;SDS011;25451;51.960;6.250;2023-10-08T03:04:05;10.75;;;2.80;;
39772;SDS011;25451;51.960;6.250;2023-10-08T03:06:40;13.30;;;3.30;;
39772;SDS011;25451;51.960;6.250;2023-10-08T03:09:06;10.27;;;3.08;;
39772;SDS011;25451;51.960;6.250;2023-10-08T03:11:38;10.70;;;2.97;;
39772;SDS011;25451;51.960;6.250;2023-10-08T03:14:04;10.63;;;3.20;;
39772;SDS011;25451;51.960;6.250;2023-10-08T03:16:39;13.45;;;3.38;;
39772;SDS011;25451;51.960;6.250;2023-10-08T03:19:05;11.00;;;3.25;;
39772;SDS011;25451;51.960;6.250;2023-10-08T03:21:31;14.93;;;3.87;;
39772;SDS011;25451;51.960;6.250;2023-10-08T03:24:02;12.27;;;3.13;;
39772;SDS011;25451;51.960;6.250;2023-10-08T03:26:37;11.48;;;3.55;;
39772;SDS011;25451;51.960;6.250;2023-10-08T03:29:04;13.75;;;3.30;;
39772;SDS011;25451;51.960;6.250;2023-10-08T03:31:34;14.55;;;4.20;;
39772;SDS011;25451;51.960;6.250;2023-10-08T03:34:11;12.88;;;3.30;;
39772;SDS011;25451;51.960;6.250;2023-10-08T03:36:40;12.13;;;3.60;;
39772;SDS011;25451;51.960;6.250;2023-10-08T03:39:10;13.68;;;3.78;;
39772;SDS011;25451;51.960;6.250;2023-10-08T03:41:38;11.32;;;3.60;;
39772;SDS011;25451;51.960;6.250;2023-10-08T03:44:05;11.23;;;3.20;;
39772;SDS011;25451;51.960;6.250;2023-10-08T03:46:31;10.93;;;2.95;;
39772;SDS011;25451;51.960;6.250;2023-10-08T03:49:07;10.43;;;3.00;;
39772;SDS011;25451;51.960;6.250;2023-10-08T03:51:40;14.95;;;3.80;;
39772;SDS011;25451;51.960;6.250;2023-10-08T03:54:08;12.50;;;3.63;;
39772;SDS011;25451;51.960;6.250;2023-10-08T03:56:39;13.05;;;3.30;;
39772;SDS011;25451;51.960;6.250;2023-10-08T03:59:10;10.55;;;3.13;;
39772;SDS011;25451;51.960;6.250;2023-10-08T04:01:40;12.00;;;3.22;;
39772;SDS011;25451;51.960;6.250;2023-10-08T04:04:06;12.95;;;3.70;;
39772;SDS011;25451;51.960;6.250;2023-10-08T04:06:37;13.50;;;3.83;;
39772;SDS011;25451;51.960;6.250;2023-10-08T04:09:04;9.93;;;3.50;;
39772;SDS011;25451;51.960;6.250;2023-10-08T04:11:33;8.48;;;2.95;;
39772;SDS011;25451;51.960;6.250;2023-10-08T04:14:01;9.52;;;2.70;;
39772;SDS011;25451;51.960;6.250;2023-10-08T04:16:27;7.63;;;3.15;;
39772;SDS011;25451;51.960;6.250;2023-10-08T04:18:53;6.37;;;2.33;;
39772;SDS011;25451;51.960;6.250;2023-10-08T04:21:21;7.32;;;2.67;;
39772;SDS011;25451;51.960;6.250;2023-10-08T04:23:47;8.82;;;2.47;;
39772;SDS011;25451;51.960;6.250;2023-10-08T04:26:16;5.70;;;2.33;;
39772;SDS011;25451;51.960;6.250;2023-10-08T04:28:43;8.85;;;2.47;;
39772;SDS011;25451;51.960;6.250;2023-10-08T04:31:08;8.03;;;2.47;;
39772;SDS011;25451;51.960;6.250;2023-10-08T04:33:43;7.45;;;2.53;;
39772;SDS011;25451;51.960;6.250;2023-10-08T04:36:10;8.85;;;2.55;;
39772;SDS011;25451;51.960;6.250;2023-10-08T04:38:42;7.63;;;2.22;;
39772;SDS011;25451;51.960;6.250;2023-10-08T04:41:10;12.02;;;2.40;;
39772;SDS011;25451;51.960;6.250;2023-10-08T04:43:36;9.50;;;2.20;;
39772;SDS011;25451;51.960;6.250;2023-10-08T04:46:07;9.00;;;2.17;;
39772;SDS011;25451;51.960;6.250;2023-10-08T04:48:59;8.35;;;2.10;;
39772;SDS011;25451;51.960;6.250;2023-10-08T04:51:30;7.70;;;2.03;;
39772;SDS011;25451;51.960;6.250;2023-10-08T04:53:59;5.40;;;2.00;;
39772;SDS011;25451;51.960;6.250;2023-10-08T04:56:25;6.45;;;1.50;;
39772;SDS011;25451;51.960;6.250;2023-10-08T04:58:53;4.65;;;1.67;;
39772;SDS011;25451;51.960;6.250;2023-10-08T05:01:18;7.93;;;1.77;;
39772;SDS011;25451;51.960;6.250;2023-10-08T05:03:53;5.72;;;1.85;;
39772;SDS011;25451;51.960;6.250;2023-10-08T05:06:40;6.80;;;1.77;;
39772;SDS011;25451;51.960;6.250;2023-10-08T05:09:15;4.05;;;1.65;;
39772;SDS011;25451;51.960;6.250;2023-10-08T05:11:44;5.57;;;1.40;;
39772;SDS011;25451;51.960;6.250;2023-10-08T05:14:22;6.87;;;1.83;;
39772;SDS011;25451;51.960;6.250;2023-10-08T05:16:57;4.82;;;1.40;;
39772;SDS011;25451;51.960;6.250;2023-10-08T05:19:31;5.80;;;1.67;;
39772;SDS011;25451;51.960;6.250;2023-10-08T05:22:07;4.70;;;1.70;;
39772;SDS011;25451;51.960;6.250;2023-10-08T05:24:45;5.90;;;1.60;;
39772;SDS011;25451;51.960;6.250;2023-10-08T05:27:30;5.23;;;2.00;;
39772;SDS011;25451;51.960;6.250;2023-10-08T05:30:03;3.80;;;1.70;;
39772;SDS011;25451;51.960;6.250;2023-10-08T05:32:42;4.43;;;1.95;;
39772;SDS011;25451;51.960;6.250;2023-10-08T05:35:31;4.07;;;2.00;;
39772;SDS011;25451;51.960;6.250;2023-10-08T05:38:06;5.05;;;1.98;;
39772;SDS011;25451;51.960;6.250;2023-10-08T05:40:39;5.63;;;2.23;;
39772;SDS011;25451;51.960;6.250;2023-10-08T05:43:24;4.82;;;1.55;;
39772;SDS011;25451;51.960;6.250;2023-10-08T05:46:06;4.88;;;1.88;;
39772;SDS011;25451;51.960;6.250;2023-10-08T05:48:52;5.28;;;1.83;;
39772;SDS011;25451;51.960;6.250;2023-10-08T05:51:34;4.28;;;1.73;;
39772;SDS011;25451;51.960;6.250;2023-10-08T05:54:12;5.13;;;1.80;;
39772;SDS011;25451;51.960;6.250;2023-10-08T06:02:26;3.80;;;1.80;;
39772;SDS011;25451;51.960;6.250;2023-10-08T06:05:05;4.15;;;1.90;;
39772;SDS011;25451;51.960;6.250;2023-10-08T06:07:45;4.50;;;2.03;;
39772;SDS011;25451;51.960;6.250;2023-10-08T06:10:18;4.57;;;1.80;;
39772;SDS011;25451;51.960;6.250;2023-10-08T06:15:38;4.05;;;2.00;;
39772;SDS011;25451;51.960;6.250;2023-10-08T06:18:17;5.10;;;2.17;;
39772;SDS011;25451;51.960;6.250;2023-10-08T06:20:44;5.03;;;2.07;;
39772;SDS011;25451;51.960;6.250;2023-10-08T06:23:11;5.85;;;2.17;;
39772;SDS011;25451;51.960;6.250;2023-10-08T06:25:40;4.90;;;2.13;;
39772;SDS011;25451;51.960;6.250;2023-10-08T06:28:16;4.85;;;2.30;;
39772;SDS011;25451;51.960;6.250;2023-10-08T06:30:46;5.13;;;2.10;;
39772;SDS011;25451;51.960;6.250;2023-10-08T06:33:11;5.77;;;2.20;;
39772;SDS011;25451;51.960;6.250;2023-10-08T06:35:38;4.45;;;2.20;;
39772;SDS011;25451;51.960;6.250;2023-10-08T06:38:08;5.50;;;2.28;;
39772;SDS011;25451;51.960;6.250;2023-10-08T06:40:40;6.03;;;2.47;;
39772;SDS011;25451;51.960;6.250;2023-10-08T06:43:06;5.77;;;2.33;;
39772;SDS011;25451;51.960;6.250;2023-10-08T06:45:43;7.15;;;2.25;;
39772;SDS011;25451;51.960;6.250;2023-10-08T06:48:14;6.25;;;2.08;;
39772;SDS011;25451;51.960;6.250;2023-10-08T06:50:48;5.13;;;1.80;;
39772;SDS011;25451;51.960;6.250;2023-10-08T06:53:14;6.07;;;1.70;;
39772;SDS011;25451;51.960;6.250;2023-10-08T06:55:43;6.67;;;1.70;;
39772;SDS011;25451;51.960;6.250;2023-10-08T06:58:10;4.93;;;1.70;;
39772;SDS011;25451;51.960;6.250;2023-10-08T07:00:37;5.47;;;1.65;;
39772;SDS011;25451;51.960;6.250;2023-10-08T07:03:23;8.90;;;1.67;;
39772;SDS011;25451;51.960;6.250;2023-10-08T07:05:50;8.10;;;1.67;;
39772;SDS011;25451;51.960;6.250;2023-10-08T07:08:22;5.93;;;1.33;;
39772;SDS011;25451;51.960;6.250;2023-10-08T07:10:48;3.95;;;1.50;;
39772;SDS011;25451;51.960;6.250;2023-10-08T07:13:18;6.85;;;1.42;;
39772;SDS011;25451;51.960;6.250;2023-10-08T07:15:49;5.65;;;1.30;;
39772;SDS011;25451;51.960;6.250;2023-10-08T07:18:15;7.15;;;1.35;;
39772;SDS011;25451;51.960;6.250;2023-10-08T07:20:49;4.53;;;1.13;;
39772;SDS011;25451;51.960;6.250;2023-10-08T07:23:18;6.22;;;1.40;;
39772;SDS011;25451;51.960;6.250;2023-10-08T07:25:52;4.78;;;1.23;;
39772;SDS011;25451;51.960;6.250;2023-10-08T07:28:25;3.60;;;1.10;;
39772;SDS011;25451;51.960;6.250;2023-10-08T07:30:51;2.85;;;1.10;;
39772;SDS011;25451;51.960;6.250;2023-10-08T07:33:17;3.13;;;1.07;;
39772;SDS011;25451;51.960;6.250;2023-10-08T07:35:46;2.80;;;1.02;;
39772;SDS011;25451;51.960;6.250;2023-10-08T07:38:22;3.25;;;1.13;;
39772;SDS011;25451;51.960;6.250;2023-10-08T07:40:52;3.83;;;1.30;;
39772;SDS011;25451;51.960;6.250;2023-10-08T07:43:19;4.05;;;1.20;;
39772;SDS011;25451;51.960;6.250;2023-10-08T07:45:45;2.40;;;1.15;;
39772;SDS011;25451;51.960;6.250;2023-10-08T07:48:11;2.38;;;1.10;;
39772;SDS011;25451;51.960;6.250;2023-10-08T07:50:44;2.70;;;1.20;;
39772;SDS011;25451;51.960;6.250;2023-10-08T07:53:11;3.33;;;1.40;;
39772;SDS011;25451;51.960;6.250;2023-10-08T07:55:43;3.78;;;1.45;;
39772;SDS011;25451;51.960;6.250;2023-10-08T07:58:10;4.45;;;1.40;;
39772;SDS011;25451;51.960;6.250;2023-10-08T08:00:36;3.47;;;1.23;;
39772;SDS011;25451;51.960;6.250;2023-10-08T08:03:04;4.72;;;1.33;;
39772;SDS011;25451;51.960;6.250;2023-10-08T08:05:30;5.57;;;1.20;;
39772;SDS011;25451;51.960;6.250;2023-10-08T08:07:55;3.60;;;1.30;;
39772;SDS011;25451;51.960;6.250;2023-10-08T08:10:23;3.40;;;1.05;;
39772;SDS011;25451;51.960;6.250;2023-10-08T08:12:48;3.43;;;1.23;;
39772;SDS011;25451;51.960;6.250;2023-10-08T08:15:16;5.15;;;1.20;;
39772;SDS011;25451;51.960;6.250;2023-10-08T08:17:42;3.77;;;1.00;;
39772;SDS011;25451;51.960;6.250;2023-10-08T08:20:08;4.13;;;1.13;;
39772;SDS011;25451;51.960;6.250;2023-10-08T08:22:57;5.68;;;1.17;;
39772;SDS011;25451;51.960;6.250;2023-10-08T08:25:31;5.68;;;1.00;;
39772;SDS011;25451;51.960;6.250;2023-10-08T08:28:08;2.20;;;0.90;;
39772;SDS011;25451;51.960;6.250;2023-10-08T08:30:41;3.30;;;1.00;;
39772;SDS011;25451;51.960;6.250;2023-10-08T08:33:11;3.22;;;1.00;;
39772;SDS011;25451;51.960;6.250;2023-10-08T08:35:37;3.40;;;1.07;;
39772;SDS011;25451;51.960;6.250;2023-10-08T08:38:02;3.05;;;0.90;;
39772;SDS011;25451;51.960;6.250;2023-10-08T08:40:31;3.80;;;1.10;;
39772;SDS011;25451;51.960;6.250;2023-10-08T08:42:57;5.03;;;1.15;;
39772;SDS011;25451;51.960;6.250;2023-10-08T08:45:27;3.65;;;1.00;;
39772;SDS011;25451;51.960;6.250;2023-10-08T08:47:56;2.45;;;1.08;;
39772;SDS011;25451;51.960;6.250;2023-10-08T08:50:22;3.30;;;1.00;;
39772;SDS011;25451;51.960;6.250;2023-10-08T08:52:48;3.72;;;1.10;;
39772;SDS011;25451;51.960;6.250;2023-10-08T08:55:14;2.53;;;1.03;;
39772;SDS011;25451;51.960;6.250;2023-10-08T08:57:42;3.92;;;1.10;;
39772;SDS011;25451;51.960;6.250;2023-10-08T09:00:09;3.45;;;1.10;;
39772;SDS011;25451;51.960;6.250;2023-10-08T09:02:37;4.25;;;1.10;;
39772;SDS011;25451;51.960;6.250;2023-10-08T09:05:03;4.47;;;1.10;;
39772;SDS011;25451;51.960;6.250;2023-10-08T09:07:57;2.77;;;1.00;;
39772;SDS011;25451;51.960;6.250;2023-10-08T09:10:32;4.68;;;1.40;;
39772;SDS011;25451;51.960;6.250;2023-10-08T09:13:18;4.75;;;1.10;;
39772;SDS011;25451;51.960;6.250;2023-10-08T09:15:46;3.22;;;1.25;;
39772;SDS011;25451;51.960;6.250;2023-10-08T09:18:11;2.80;;;1.17;;
39772;SDS011;25451;51.960;6.250;2023-10-08T09:20:39;3.67;;;1.10;;
39772;SDS011;25451;51.960;6.250;2023-10-08T09:23:15;3.65;;;1.10;;
39772;SDS011;25451;51.960;6.250;2023-10-08T09:25:47;2.13;;;0.90;;
39772;SDS011;25451;51.960;6.250;2023-10-08T09:28:17;3.72;;;1.10;;
39772;SDS011;25451;51.960;6.250;2023-10-08T09:30:43;3.10;;;1.13;;
39772;SDS011;25451;51.960;6.250;2023-10-08T09:33:12;4.30;;;1.20;;
39772;SDS011;25451;51.960;6.250;2023-10-08T09:35:39;3.85;;;1.10;;
39772;SDS011;25451;51.960;6.250;2023-10-08T09:38:05;3.57;;;1.00;;
39772;SDS011;25451;51.960;6.250;2023-10-08T09:40:38;3.05;;;1.20;;
39772;SDS011;25451;51.960;6.250;2023-10-08T09:43:12;2.38;;;1.00;;
39772;SDS011;25451;51.960;6.250;2023-10-08T09:45:38;5.17;;;1.37;;
39772;SDS011;25451;51.960;6.250;2023-10-08T09:48:10;3.42;;;1.48;;
39772;SDS011;25451;51.960;6.250;2023-10-08T09:50:38;2.88;;;1.10;;
39772;SDS011;25451;51.960;6.250;2023-10-08T09:55:45;2.88;;;1.25;;
39772;SDS011;25451;51.960;6.250;2023-10-08T09:58:15;3.57;;;1.20;;
39772;SDS011;25451;51.960;6.250;2023-10-08T10:00:41;1.92;;;1.05;;
39772;SDS011;25451;51.960;6.250;2023-10-08T10:03:09;5.03;;;1.30;;
39772;SDS011;25451;51.960;6.250;2023-10-08T10:05:37;3.50;;;1.27;;
39772;SDS011;25451;51.960;6.250;2023-10-08T10:08:02;3.20;;;1.00;;
39772;SDS011;25451;51.960;6.250;2023-10-08T10:10:36;5.00;;;1.20;;
39772;SDS011;25451;51.960;6.250;2023-10-08T10:13:09;7.18;;;1.35;;
39772;SDS011;25451;51.960;6.250;2023-10-08T10:15:36;4.43;;;1.30;;
39772;SDS011;25451;51.960;6.250;2023-10-08T10:18:09;2.90;;;1.10;;
39772;SDS011;25451;51.960;6.250;2023-10-08T10:20:44;2.65;;;1.00;;
39772;SDS011;25451;51.960;6.250;2023-10-08T10:31:45;3.30;;;1.00;;
39772;SDS011;25451;51.960;6.250;2023-10-08T10:34:19;3.58;;;1.00;;
39772;SDS011;25451;51.960;6.250;2023-10-08T10:36:46;2.97;;;1.58;;
39772;SDS011;25451;51.960;6.250;2023-10-08T10:39:20;3.20;;;1.20;;
39772;SDS011;25451;51.960;6.250;2023-10-08T10:41:52;2.83;;;1.13;;
39772;SDS011;25451;51.960;6.250;2023-10-08T10:44:32;3.37;;;1.90;;
39772;SDS011;25451;51.960;6.250;2023-10-08T10:47:01;3.78;;;1.20;;
39772;SDS011;25451;51.960;6.250;2023-10-08T10:49:43;2.38;;;1.02;;
39772;SDS011;25451;51.960;6.250;2023-10-08T10:52:25;2.08;;;1.13;;
39772;SDS011;25451;51.960;6.250;2023-10-08T10:55:00;3.40;;;1.20;;
39772;SDS011;25451;51.960;6.250;2023-10-08T10:57:52;3.90;;;1.40;;
39772;SDS011;25451;51.960;6.250;2023-10-08T11:00:28;4.03;;;1.50;;
39772;SDS011;25451;51.960;6.250;2023-10-08T11:02:57;4.47;;;1.48;;
39772;SDS011;25451;51.960;6.250;2023-10-08T11:05:27;3.53;;;1.45;;
39772;SDS011;25451;51.960;6.250;2023-10-08T11:07:58;3.97;;;1.50;;
39772;SDS011;25451;51.960;6.250;2023-10-08T11:10:38;2.30;;;1.20;;
39772;SDS011;25451;51.960;6.250;2023-10-08T11:13:04;3.42;;;1.40;;
39772;SDS011;25451;51.960;6.250;2023-10-08T11:15:39;3.00;;;1.40;;
39772;SDS011;25451;51.960;6.250;2023-10-08T11:18:11;2.92;;;1.20;;
39772;SDS011;25451;51.960;6.250;2023-10-08T11:20:40;2.80;;;1.23;;
39772;SDS011;25451;51.960;6.250;2023-10-08T11:23:09;3.10;;;1.17;;
39772;SDS011;25451;51.960;6.250;2023-10-08T11:25:57;2.83;;;1.30;;
39772;SDS011;25451;51.960;6.250;2023-10-08T11:28:27;2.30;;;1.20;;
39772;SDS011;25451;51.960;6.250;2023-10-08T11:30:53;2.65;;;1.27;;
39772;SDS011;25451;51.960;6.250;2023-10-08T11:33:19;3.80;;;1.20;;
39772;SDS011;25451;51.960;6.250;2023-10-08T11:35:58;2.53;;;1.27;;
39772;SDS011;25451;51.960;6.250;2023-10-08T11:38:26;2.42;;;1.13;;
39772;SDS011;25451;51.960;6.250;2023-10-08T11:40:53;2.23;;;1.10;;
39772;SDS011;25451;51.960;6.250;2023-10-08T11:43:22;3.35;;;1.20;;
39772;SDS011;25451;51.960;6.250;2023-10-08T11:45:48;2.58;;;1.27;;
39772;SDS011;25451;51.960;6.250;2023-10-08T11:48:14;2.40;;;1.03;;
39772;SDS011;25451;51.960;6.250;2023-10-08T11:50:47;3.10;;;1.20;;
39772;SDS011;25451;51.960;6.250;2023-10-08T11:53:12;3.35;;;1.05;;
39772;SDS011;25451;51.960;6.250;2023-10-08T11:55:38;1.70;;;0.90;;
39772;SDS011;25451;51.960;6.250;2023-10-08T11:58:07;2.78;;;1.10;;
39772;SDS011;25451;51.960;6.250;2023-10-08T12:00:40;2.10;;;0.93;;
39772;SDS011;25451;51.960;6.250;2023-10-08T12:03:10;1.83;;;1.00;;
39772;SDS011;25451;51.960;6.250;2023-10-08T12:05:36;2.53;;;0.90;;
39772;SDS011;25451;51.960;6.250;2023-10-08T12:08:04;4.30;;;1.20;;
39772;SDS011;25451;51.960;6.250;2023-10-08T12:10:33;2.35;;;1.17;;
39772;SDS011;25451;51.960;6.250;2023-10-08T12:12:59;2.95;;;1.33;;
39772;SDS011;25451;51.960;6.250;2023-10-08T12:15:25;2.25;;;1.27;;
39772;SDS011;25451;51.960;6.250;2023-10-08T12:18:03;2.70;;;1.50;;
39772;SDS011;25451;51.960;6.250;2023-10-08T12:20:50;2.95;;;1.70;;
39772;SDS011;25451;51.960;6.250;2023-10-08T12:23:15;3.60;;;2.00;;
39772;SDS011;25451;51.960;6.250;2023-10-08T12:25:59;4.07;;;2.08;;
39772;SDS011;25451;51.960;6.250;2023-10-08T12:28:25;3.22;;;1.60;;
39772;SDS011;25451;51.960;6.250;2023-10-08T12:30:51;2.65;;;1.60;;
39772;SDS011;25451;51.960;6.250;2023-10-08T12:33:23;3.33;;;1.80;;
39772;SDS011;25451;51.960;6.250;2023-10-08T12:35:52;2.75;;;1.80;;
39772;SDS011;25451;51.960;6.250;2023-10-08T12:38:38;2.58;;;1.75;;
39772;SDS011;25451;51.960;6.250;2023-10-08T12:41:11;2.20;;;1.40;;
39772;SDS011;25451;51.960;6.250;2023-10-08T12:43:39;3.63;;;1.20;;
39772;SDS011;25451;51.960;6.250;2023-10-08T12:46:11;1.70;;;0.90;;
39772;SDS011;25451;51.960;6.250;2023-10-08T12:48:46;1.40;;;0.90;;
39772;SDS011;25451;51.960;6.250;2023-10-08T12:51:17;1.42;;;0.88;;
39772;SDS011;25451;51.960;6.250;2023-10-08T12:53:43;2.42;;;0.88;;
39772;SDS011;25451;51.960;6.250;2023-10-08T12:56:15;2.63;;;0.82;;
39772;SDS011;25451;51.960;6.250;2023-10-08T12:58:42;1.20;;;0.93;;
39772;SDS011;25451;51.960;6.250;2023-10-08T13:01:16;3.20;;;0.95;;
39772;SDS011;25451;51.960;6.250;2023-10-08T13:03:45;1.60;;;0.90;;
39772;SDS011;25451;51.960;6.250;2023-10-08T13:06:14;1.90;;;1.00;;
39772;SDS011;25451;51.960;6.250;2023-10-08T13:08:51;2.85;;;0.90;;
39772;SDS011;25451;51.960;6.250;2023-10-08T13:11:18;2.97;;;1.00;;
39772;SDS011;25451;51.960;6.250;2023-10-08T13:13:47;3.33;;;1.10;;
39772;SDS011;25451;51.960;6.250;2023-10-08T13:16:26;3.70;;;1.10;;
39772;SDS011;25451;51.960;6.250;2023-10-08T13:18:56;1.77;;;1.00;;
39772;SDS011;25451;51.960;6.250;2023-10-08T13:21:23;2.10;;;0.88;;
39772;SDS011;25451;51.960;6.250;2023-10-08T13:23:50;2.55;;;0.80;;
39772;SDS011;25451;51.960;6.250;2023-10-08T13:26:21;3.72;;;0.80;;
39772;SDS011;25451;51.960;6.250;2023-10-08T13:28:49;1.23;;;0.70;;
39772;SDS011;25451;51.960;6.250;2023-10-08T13:31:15;2.78;;;0.70;;
39772;SDS011;25451;51.960;6.250;2023-10-08T13:33:41;1.23;;;0.90;;
39772;SDS011;25451;51.960;6.250;2023-10-08T13:36:09;1.60;;;0.77;;
39772;SDS011;25451;51.960;6.250;2023-10-08T13:38:36;1.30;;;0.70;;
39772;SDS011;25451;51.960;6.250;2023-10-08T13:41:03;2.22;;;0.70;;
39772;SDS011;25451;51.960;6.250;2023-10-08T13:43:31;1.73;;;0.77;;
39772;SDS011;25451;51.960;6.250;2023-10-08T13:48:31;2.30;;;0.73;;
39772;SDS011;25451;51.960;6.250;2023-10-08T13:51:03;3.97;;;0.70;;
39772;SDS011;25451;51.960;6.250;2023-10-08T13:53:30;1.38;;;0.63;;
39772;SDS011;25451;51.960;6.250;2023-10-08T13:56:00;2.10;;;0.80;;
39772;SDS011;25451;51.960;6.250;2023-10-08T13:58:29;1.63;;;0.80;;
39772;SDS011;25451;51.960;6.250;2023-10-08T14:00:56;1.50;;;0.80;;
39772;SDS011;25451;51.960;6.250;2023-10-08T14:03:25;2.45;;;0.88;;
39772;SDS011;25451;51.960;6.250;2023-10-08T14:05:51;1.67;;;0.80;;
39772;SDS011;25451;51.960;6.250;2023-10-08T14:08:17;1.83;;;0.73;;
39772;SDS011;25451;51.960;6.250;2023-10-08T14:10:43;1.73;;;0.75;;
39772;SDS011;25451;51.960;6.250;2023-10-08T14:13:10;1.38;;;0.80;;
39772;SDS011;25451;51.960;6.250;2023-10-08T14:15:35;2.07;;;0.60;;
39772;SDS011;25451;51.960;6.250;2023-10-08T14:18:07;2.60;;;0.70;;
39772;SDS011;25451;51.960;6.250;2023-10-08T14:20:33;1.55;;;0.70;;
39772;SDS011;25451;51.960;6.250;2023-10-08T14:22:59;2.70;;;0.80;;
39772;SDS011;25451;51.960;6.250;2023-10-08T14:25:27;2.47;;;0.82;;
39772;SDS011;25451;51.960;6.250;2023-10-08T14:27:53;4.03;;;0.80;;
39772;SDS011;25451;51.960;6.250;2023-10-08T14:30:19;2.80;;;0.80;;
39772;SDS011;25451;51.960;6.250;2023-10-08T14:32:49;2.20;;;0.70;;
39772;SDS011;25451;51.960;6.250;2023-10-08T14:35:14;2.63;;;0.88;;
39772;SDS011;25451;51.960;6.250;2023-10-08T14:37:59;2.92;;;0.80;;
39772;SDS011;25451;51.960;6.250;2023-10-08T14:40:44;4.53;;;1.00;;
39772;SDS011;25451;51.960;6.250;2023-10-08T14:43:28;2.92;;;1.00;;
39772;SDS011;25451;51.960;6.250;2023-10-08T14:45:56;4.10;;;0.80;;
39772;SDS011;25451;51.960;6.250;2023-10-08T14:48:24;2.35;;;0.90;;
39772;SDS011;25451;51.960;6.250;2023-10-08T14:50:49;2.27;;;0.73;;
39772;SDS011;25451;51.960;6.250;2023-10-08T14:53:15;3.33;;;1.00;;
39772;SDS011;25451;51.960;6.250;2023-10-08T14:55:40;5.10;;;1.00;;
39772;SDS011;25451;51.960;6.250;2023-10-08T14:58:06;3.30;;;0.87;;
39772;SDS011;25451;51.960;6.250;2023-10-08T15:00:36;3.47;;;1.20;;
39772;SDS011;25451;51.960;6.250;2023-10-08T15:03:02;4.13;;;1.00;;
39772;SDS011;25451;51.960;6.250;2023-10-08T15:05:29;2.85;;;1.00;;
39772;SDS011;25451;51.960;6.250;2023-10-08T15:07:55;3.30;;;0.93;;
39772;SDS011;25451;51.960;6.250;2023-10-08T15:10:21;3.08;;;1.00;;
39772;SDS011;25451;51.960;6.250;2023-10-08T15:12:46;2.50;;;0.90;;
39772;SDS011;25451;51.960;6.250;2023-10-08T15:15:12;3.95;;;1.00;;
39772;SDS011;25451;51.960;6.250;2023-10-08T15:17:39;3.97;;;0.90;;
39772;SDS011;25451;51.960;6.250;2023-10-08T15:20:06;3.55;;;0.90;;
39772;SDS011;25451;51.960;6.250;2023-10-08T15:22:32;3.38;;;1.15;;
39772;SDS011;25451;51.960;6.250;2023-10-08T15:24:57;2.67;;;0.90;;